createdAt,value
2022-11-21T00:01:23.352Z,0.60
2022-11-21T00:03:51.233Z,0.70
2022-11-21T00:06:19.224Z,0.53
2022-11-21T00:08:47.476Z,0.60
2022-11-21T00:11:15.287Z,0.50
2022-11-21T00:13:43.204Z,0.60
2022-11-21T00:16:13.440Z,0.63
2022-11-21T00:18:41.416Z,0.57
2022-11-21T00:21:11.620Z,0.57
2022-11-21T00:23:39.480Z,0.47
2022-11-21T00:26:08.076Z,0.50
2022-11-21T00:28:35.966Z,0.70
2022-11-21T00:31:04.111Z,0.57
2022-11-21T00:33:32.518Z,0.50
2022-11-21T00:36:00.265Z,0.80
2022-11-21T00:38:28.650Z,0.67
2022-11-21T00:40:56.450Z,0.40
2022-11-21T00:43:24.331Z,0.60
2022-11-21T00:45:52.152Z,0.77
2022-11-21T00:48:19.995Z,0.60
2022-11-21T00:50:50.409Z,0.60
2022-11-21T00:53:18.301Z,0.57
2022-11-21T00:55:46.154Z,0.40
2022-11-21T00:58:14.037Z,0.30
2022-11-21T01:00:41.881Z,0.47
2022-11-21T01:03:09.775Z,0.50
2022-11-21T01:05:37.540Z,0.57
2022-11-21T01:08:05.511Z,0.67
2022-11-21T01:10:33.414Z,0.57
2022-11-21T01:13:01.245Z,0.70
2022-11-21T01:15:28.937Z,0.60
2022-11-21T01:17:56.681Z,1.13
2022-11-21T01:20:24.562Z,0.67
2022-11-21T01:22:52.321Z,0.70
2022-11-21T01:25:20.088Z,0.50
2022-11-21T01:27:47.886Z,0.63
2022-11-21T01:30:16.103Z,0.60
2022-11-21T01:32:43.876Z,0.60
2022-11-21T01:35:11.805Z,0.60
2022-11-21T01:37:39.516Z,0.50
2022-11-21T01:40:07.595Z,0.50
2022-11-21T01:42:59.774Z,0.73
2022-11-21T01:45:53.656Z,0.60
2022-11-21T01:48:22.272Z,0.60
2022-11-21T01:50:50.020Z,0.70
2022-11-21T01:53:17.879Z,0.50
2022-11-21T01:55:45.822Z,0.30
2022-11-21T01:58:13.656Z,0.50
2022-11-21T02:00:41.582Z,0.40
2022-11-21T02:03:15.479Z,0.40
2022-11-21T02:05:43.189Z,0.30
2022-11-21T02:08:15.753Z,0.47
2022-11-21T02:10:48.025Z,0.57
2022-11-21T02:13:16.083Z,0.70
2022-11-21T02:15:43.916Z,0.30
2022-11-21T02:18:11.702Z,0.30
2022-11-21T02:20:39.494Z,0.50
2022-11-21T02:23:21.840Z,0.50
2022-11-21T02:25:49.641Z,0.40
2022-11-21T02:28:17.780Z,0.30
2022-11-21T02:30:45.464Z,0.40
2022-11-21T02:33:13.504Z,0.40
2022-11-21T02:35:41.314Z,0.43
2022-11-21T02:38:23.606Z,0.50
2022-11-21T02:41:13.229Z,0.63
2022-11-21T02:43:41.918Z,0.50
2022-11-21T02:46:09.718Z,0.50
2022-11-21T02:48:38.671Z,0.50
2022-11-21T02:51:06.642Z,0.53
2022-11-21T02:53:34.590Z,0.40
2022-11-21T02:56:02.482Z,0.40
2022-11-21T02:58:30.648Z,0.30
2022-11-21T03:00:58.444Z,0.67
2022-11-21T03:03:26.307Z,0.50
2022-11-21T03:05:53.998Z,0.30
2022-11-21T03:08:21.797Z,0.40
2022-11-21T03:10:49.567Z,0.50
2022-11-21T03:13:17.565Z,0.30
2022-11-21T03:15:45.283Z,0.60
2022-11-21T03:18:13.092Z,0.43
2022-11-21T03:20:40.934Z,0.33
2022-11-21T03:23:08.783Z,0.30
2022-11-21T03:25:36.499Z,0.50
2022-11-21T03:28:04.290Z,0.53
2022-11-21T03:30:32.013Z,0.40
2022-11-21T03:32:59.742Z,0.50
2022-11-21T03:35:27.716Z,0.47
2022-11-21T03:37:55.629Z,0.30
2022-11-21T03:40:23.502Z,0.47
2022-11-21T03:42:51.299Z,0.53
2022-11-21T03:45:19.264Z,0.50
2022-11-21T03:47:47.096Z,0.50
2022-11-21T03:50:18.495Z,0.57
2022-11-21T03:52:46.227Z,0.57
2022-11-21T03:55:13.990Z,0.60
2022-11-21T03:57:41.842Z,0.40
2022-11-21T04:00:10.323Z,0.50
2022-11-21T04:02:38.221Z,0.50
2022-11-21T04:05:06.292Z,0.53
2022-11-21T04:07:34.105Z,0.30
2022-11-21T04:10:01.866Z,0.60
2022-11-21T04:12:29.614Z,0.60
2022-11-21T04:14:57.358Z,0.63
2022-11-21T04:17:25.185Z,0.40
2022-11-21T04:19:53.034Z,0.50
2022-11-21T04:22:20.802Z,0.43
2022-11-21T04:24:48.581Z,0.50
2022-11-21T04:27:16.435Z,0.50
2022-11-21T04:29:44.260Z,0.40
2022-11-21T04:32:12.020Z,0.43
2022-11-21T04:34:40.865Z,0.37
2022-11-21T04:37:11.613Z,0.33
2022-11-21T04:39:39.626Z,0.70
2022-11-21T04:42:07.492Z,0.60
2022-11-21T04:44:35.188Z,0.60
2022-11-21T04:47:05.517Z,0.50
2022-11-21T04:49:33.764Z,0.80
2022-11-21T04:52:01.541Z,0.40
2022-11-21T04:54:29.615Z,0.40
2022-11-21T04:56:57.675Z,0.50
2022-11-21T04:59:25.428Z,0.60
2022-11-21T05:01:53.237Z,0.63
2022-11-21T05:04:21.119Z,0.60
2022-11-21T05:06:48.881Z,0.60
2022-11-21T05:09:16.727Z,0.57
2022-11-21T05:12:03.222Z,0.60
2022-11-21T05:14:31.107Z,0.77
2022-11-21T05:16:59.012Z,0.70
2022-11-21T05:19:26.804Z,0.50
2022-11-21T05:21:55.080Z,0.60
2022-11-21T05:24:22.859Z,0.63
2022-11-21T05:26:50.722Z,0.50
2022-11-21T05:29:18.541Z,0.50
2022-11-21T05:31:46.304Z,0.80
2022-11-21T05:34:14.154Z,0.60
2022-11-21T05:36:41.916Z,0.67
2022-11-21T05:39:09.690Z,0.70
2022-11-21T05:41:37.379Z,0.47
2022-11-21T05:44:05.154Z,0.87
2022-11-21T05:46:33.012Z,0.40
2022-11-21T05:49:00.753Z,0.40
2022-11-21T05:51:28.582Z,0.63
2022-11-21T05:53:56.450Z,0.40
2022-11-21T05:56:24.281Z,0.70
2022-11-21T05:58:51.974Z,0.40
2022-11-21T06:01:42.915Z,0.63
2022-11-21T06:04:10.758Z,0.60
2022-11-21T06:06:38.682Z,0.70
2022-11-21T06:09:06.404Z,0.70
2022-11-21T06:11:34.238Z,0.60
2022-11-21T06:14:02.033Z,0.80
2022-11-21T06:16:29.772Z,0.70
2022-11-21T06:18:58.854Z,0.70
2022-11-21T06:21:28.343Z,0.67
2022-11-21T06:23:57.946Z,1.00
2022-11-21T06:26:26.912Z,0.67
2022-11-21T06:28:55.367Z,0.70
2022-11-21T06:31:25.014Z,0.77
2022-11-21T06:33:56.643Z,1.03
2022-11-21T06:36:24.429Z,0.70
2022-11-21T06:38:54.056Z,0.90
2022-11-21T06:41:23.505Z,0.60
2022-11-21T06:43:51.309Z,0.83
2022-11-21T06:46:19.300Z,0.80
2022-11-21T06:48:47.077Z,0.63
2022-11-21T06:51:19.444Z,0.70
2022-11-21T06:53:47.927Z,0.60
2022-11-21T06:56:18.757Z,1.00
2022-11-21T06:58:46.581Z,0.80
2022-11-21T07:01:14.771Z,0.57
2022-11-21T07:03:42.597Z,0.80
2022-11-21T07:06:10.347Z,0.60
2022-11-21T07:08:38.176Z,0.50
2022-11-21T07:11:24.557Z,0.50
2022-11-21T07:13:52.954Z,0.50
2022-11-21T07:16:20.708Z,0.50
2022-11-21T07:18:48.503Z,0.60
2022-11-21T07:21:16.317Z,0.30
2022-11-21T07:23:44.027Z,0.63
2022-11-21T07:26:12.107Z,0.73
2022-11-21T07:28:40.106Z,0.33
2022-11-21T07:31:13.251Z,0.30
2022-11-21T07:33:42.040Z,0.50
2022-11-21T07:36:09.863Z,0.40
2022-11-21T07:38:37.619Z,0.37
2022-11-21T07:41:05.448Z,0.40
2022-11-21T07:43:33.345Z,0.70
2022-11-21T07:46:01.268Z,0.57
2022-11-21T07:48:33.815Z,0.40
2022-11-21T07:51:04.837Z,0.40
2022-11-21T07:53:33.017Z,0.20
2022-11-21T07:56:01.220Z,0.30
2022-11-21T07:58:29.107Z,0.20
2022-11-21T08:00:57.043Z,0.40
2022-11-21T08:03:26.373Z,0.30
2022-11-21T08:05:54.306Z,0.43
2022-11-21T08:08:22.094Z,0.30
2022-11-21T08:10:49.978Z,0.40
2022-11-21T08:13:17.824Z,0.40
2022-11-21T08:15:45.663Z,0.40
2022-11-21T08:18:20.316Z,0.50
2022-11-21T08:20:48.320Z,0.57
2022-11-21T08:23:16.106Z,0.57
2022-11-21T08:25:44.125Z,0.80
2022-11-21T08:28:12.431Z,1.60
2022-11-21T08:30:40.738Z,0.80
2022-11-21T08:33:08.574Z,0.67
2022-11-21T08:35:37.477Z,0.70
2022-11-21T08:38:05.498Z,1.10
2022-11-21T08:40:33.663Z,0.80
2022-11-21T08:43:03.326Z,0.80
2022-11-21T08:45:31.255Z,0.90
2022-11-21T08:47:59.063Z,0.90
2022-11-21T08:50:27.295Z,0.80
2022-11-21T08:53:00.125Z,0.70
2022-11-21T08:55:27.932Z,0.50
2022-11-21T08:57:55.653Z,0.57
2022-11-21T09:00:23.685Z,0.27
2022-11-21T09:02:51.547Z,0.43
2022-11-21T09:05:19.340Z,0.40
2022-11-21T09:07:47.497Z,0.30
2022-11-21T09:10:15.786Z,0.60
2022-11-21T09:12:43.814Z,0.57
2022-11-21T09:15:30.748Z,1.00
2022-11-21T09:18:04.505Z,0.87
2022-11-21T09:20:42.640Z,0.70
2022-11-21T09:23:12.444Z,0.87
2022-11-21T09:25:40.443Z,0.50
2022-11-21T09:28:09.092Z,1.10
2022-11-21T09:30:37.162Z,8.00
2022-11-21T09:33:09.675Z,1.23
2022-11-21T09:35:37.504Z,0.80
2022-11-21T09:38:05.324Z,0.60
2022-11-21T09:40:33.721Z,0.60
2022-11-21T09:43:23.042Z,1.00
2022-11-21T09:45:51.773Z,0.87
2022-11-21T09:48:29.275Z,0.70
2022-11-21T09:50:59.933Z,0.60
2022-11-21T09:53:30.034Z,0.50
2022-11-21T09:56:04.460Z,0.80
2022-11-21T09:58:50.264Z,0.80
2022-11-21T10:01:18.364Z,0.70
2022-11-21T10:03:50.544Z,0.83
2022-11-21T10:06:28.304Z,0.50
2022-11-21T10:09:16.416Z,0.60
2022-11-21T10:12:15.372Z,0.83
2022-11-21T10:15:01.908Z,0.83
2022-11-21T10:18:05.122Z,0.50
2022-11-21T10:20:51.678Z,0.60
2022-11-21T10:23:48.438Z,0.80
2022-11-21T10:26:21.897Z,0.80
2022-11-21T10:28:54.830Z,0.60
2022-11-21T10:31:22.644Z,1.00
2022-11-21T10:33:51.661Z,1.27
2022-11-21T10:36:19.312Z,0.90
2022-11-21T10:38:47.118Z,1.70
2022-11-21T10:41:32.824Z,1.30
2022-11-21T10:44:47.761Z,0.90
2022-11-21T10:47:28.498Z,0.87
2022-11-21T10:50:14.211Z,0.77
2022-11-21T10:52:50.416Z,0.60
2022-11-21T10:55:18.882Z,1.00
2022-11-21T10:57:51.028Z,1.33
2022-11-21T11:00:26.210Z,1.87
2022-11-21T11:02:57.374Z,1.23
2022-11-21T11:05:26.419Z,0.83
2022-11-21T11:08:20.754Z,1.10
2022-11-21T11:11:08.202Z,1.70
2022-11-21T11:13:51.275Z,1.57
2022-11-21T11:16:20.510Z,1.53
2022-11-21T11:19:09.902Z,1.90
2022-11-21T11:21:40.631Z,1.67
2022-11-21T11:24:08.418Z,1.40
2022-11-21T11:26:36.445Z,1.37
2022-11-21T11:29:15.502Z,1.30
2022-11-21T11:32:02.706Z,1.50
2022-11-21T11:34:41.715Z,1.70
2022-11-21T11:37:21.124Z,1.23
2022-11-21T11:40:21.477Z,1.47
2022-11-21T11:43:38.847Z,1.60
2022-11-21T11:46:28.321Z,1.83
2022-11-21T11:49:19.225Z,1.70
2022-11-21T11:51:48.502Z,1.40
2022-11-21T11:54:28.403Z,1.50
2022-11-21T11:56:56.347Z,1.10
2022-11-21T11:59:27.790Z,1.10
2022-11-21T12:02:11.969Z,1.00
2022-11-21T12:04:47.272Z,1.70
2022-11-21T12:10:32.512Z,1.30
2022-11-21T12:13:20.512Z,1.00
2022-11-21T12:15:52.303Z,1.10
2022-11-21T12:18:20.561Z,1.20
2022-11-21T12:21:09.567Z,0.98
2022-11-21T12:23:47.882Z,1.40
2022-11-21T12:26:21.782Z,1.30
2022-11-21T12:29:05.764Z,1.17
2022-11-21T12:32:01.972Z,1.20
2022-11-21T12:34:39.832Z,1.05
2022-11-21T12:37:20.615Z,1.23
2022-11-21T12:40:01.708Z,1.10
2022-11-21T12:42:47.637Z,1.00
2022-11-21T12:45:31.624Z,1.07
2022-11-21T12:48:39.733Z,1.00
2022-11-21T12:51:56.815Z,1.40
2022-11-21T12:54:49.609Z,1.53
2022-11-21T12:57:18.525Z,0.90
2022-11-21T12:59:55.443Z,1.10
2022-11-21T13:02:23.115Z,0.80
2022-11-21T13:04:51.506Z,0.73
2022-11-21T13:07:19.528Z,0.60
2022-11-21T13:09:48.710Z,0.97
2022-11-21T13:12:34.552Z,0.90
2022-11-21T13:15:23.244Z,0.60
2022-11-21T13:18:00.169Z,0.87
2022-11-21T13:20:29.331Z,1.10
2022-11-21T13:23:10.054Z,1.00
2022-11-21T13:25:41.907Z,0.70
2022-11-21T13:28:19.037Z,0.80
2022-11-21T13:30:50.650Z,1.90
2022-11-21T13:33:36.551Z,0.73
2022-11-21T13:36:09.019Z,0.80
2022-11-21T13:38:52.122Z,0.90
2022-11-21T13:41:53.748Z,0.80
2022-11-21T13:44:33.608Z,0.80
2022-11-21T13:47:27.704Z,0.67
2022-11-21T13:50:09.963Z,0.67
2022-11-21T13:52:58.946Z,0.90
2022-11-21T13:55:49.839Z,0.80
2022-11-21T13:58:33.704Z,0.87
2022-11-21T14:01:20.109Z,1.00
2022-11-21T14:04:09.062Z,0.60
2022-11-21T14:06:40.633Z,0.80
2022-11-21T14:09:14.605Z,0.47
2022-11-21T14:12:04.997Z,1.07
2022-11-21T14:14:40.430Z,0.60
2022-11-21T14:17:15.551Z,0.70
2022-11-21T14:19:43.326Z,0.80
2022-11-21T14:22:45.599Z,0.90
2022-11-21T14:25:18.861Z,0.90
2022-11-21T14:27:50.178Z,0.63
2022-11-21T14:30:34.248Z,0.50
2022-11-21T14:33:24.073Z,0.50
2022-11-21T14:36:17.857Z,0.70
2022-11-21T14:39:07.450Z,0.60
2022-11-21T14:41:38.296Z,0.83
2022-11-21T14:44:07.150Z,0.77
2022-11-21T14:46:39.328Z,1.00
2022-11-21T14:49:16.927Z,0.90
2022-11-21T14:51:45.589Z,0.83
2022-11-21T14:54:15.568Z,0.80
2022-11-21T14:56:43.390Z,1.00
2022-11-21T14:59:18.672Z,0.97
2022-11-21T15:01:56.482Z,1.00
2022-11-21T15:04:35.125Z,1.03
2022-11-21T15:07:03.202Z,0.90
2022-11-21T15:12:28.913Z,0.77
2022-11-21T15:15:01.015Z,1.00
2022-11-21T15:17:28.807Z,0.70
2022-11-21T15:20:11.437Z,0.80
2022-11-21T15:22:40.612Z,0.90
2022-11-21T15:25:20.255Z,0.80
2022-11-21T15:27:52.230Z,0.50
2022-11-21T15:30:20.056Z,0.77
2022-11-21T15:33:08.706Z,0.60
2022-11-21T15:35:39.138Z,0.63
2022-11-21T15:38:51.007Z,0.60
2022-11-21T15:41:18.681Z,0.60
2022-11-21T15:43:52.929Z,0.73
2022-11-21T15:46:27.775Z,0.80
2022-11-21T15:49:25.111Z,0.90
2022-11-21T15:52:06.491Z,0.70
2022-11-21T15:54:35.161Z,1.10
2022-11-21T15:57:02.971Z,1.60
2022-11-21T15:59:31.988Z,1.77
2022-11-21T16:02:00.050Z,1.50
2022-11-21T16:04:28.464Z,1.70
2022-11-21T16:06:56.430Z,1.20
2022-11-21T16:09:24.224Z,0.97
2022-11-21T16:11:51.977Z,1.13
2022-11-21T16:14:19.854Z,1.10
2022-11-21T16:16:47.829Z,1.43
2022-11-21T16:19:15.918Z,1.37
2022-11-21T16:21:43.815Z,1.37
2022-11-21T16:24:11.689Z,1.00
2022-11-21T16:26:39.559Z,0.97
2022-11-21T16:29:07.814Z,1.10
2022-11-21T16:31:35.744Z,1.20
2022-11-21T16:34:03.775Z,1.33
2022-11-21T16:36:32.412Z,0.90
2022-11-21T16:39:08.843Z,0.90
2022-11-21T16:41:38.092Z,0.70
2022-11-21T16:44:06.063Z,0.83
2022-11-21T16:46:33.846Z,0.80
2022-11-21T16:49:04.984Z,1.10
2022-11-21T16:51:32.807Z,0.53
2022-11-21T16:54:04.420Z,0.60
2022-11-21T16:56:36.265Z,0.90
2022-11-21T16:59:04.134Z,0.80
2022-11-21T17:01:32.107Z,1.33
2022-11-21T17:04:00.219Z,0.93
2022-11-21T17:06:30.304Z,1.40
2022-11-21T17:08:59.756Z,1.37
2022-11-21T17:11:30.291Z,0.90
2022-11-21T17:14:05.706Z,1.20
2022-11-21T17:16:33.765Z,0.93
2022-11-21T17:19:02.009Z,1.13
2022-11-21T17:21:29.997Z,1.20
2022-11-21T17:23:57.879Z,0.93
2022-11-21T17:26:27.752Z,0.77
2022-11-21T17:28:59.752Z,1.43
2022-11-21T17:31:27.752Z,1.20
2022-11-21T17:33:57.600Z,1.33
2022-11-21T17:36:27.365Z,1.20
2022-11-21T17:38:55.698Z,1.20
2022-11-21T17:41:24.330Z,1.33
2022-11-21T17:43:55.686Z,1.10
2022-11-21T17:46:24.861Z,1.93
2022-11-21T17:48:55.570Z,1.70
2022-11-21T17:51:35.412Z,1.73
2022-11-21T17:54:03.407Z,1.67
2022-11-21T17:56:32.755Z,1.90
2022-11-21T17:59:00.581Z,1.67
2022-11-21T18:01:28.728Z,2.13
2022-11-21T18:04:06.524Z,1.93
2022-11-21T18:06:37.985Z,1.60
2022-11-21T18:09:09.083Z,1.50
2022-11-21T18:11:39.960Z,1.67
2022-11-21T18:14:08.851Z,1.80
2022-11-21T18:16:36.752Z,1.80
2022-11-21T18:19:04.500Z,2.20
2022-11-21T18:21:34.089Z,1.87
2022-11-21T18:24:02.005Z,2.00
2022-11-21T18:26:34.355Z,2.37
2022-11-21T18:31:51.132Z,2.40
2022-11-21T18:34:18.970Z,1.70
2022-11-21T18:36:48.722Z,2.13
2022-11-21T18:39:16.561Z,2.40
2022-11-21T18:41:44.368Z,2.67
2022-11-21T18:44:17.027Z,2.40
2022-11-21T18:46:48.008Z,2.07
2022-11-21T18:49:15.861Z,2.70
2022-11-21T18:51:43.736Z,1.60
2022-11-21T18:54:12.081Z,2.30
2022-11-21T18:56:41.011Z,1.73
2022-11-21T18:59:08.987Z,2.73
2022-11-21T19:01:37.643Z,2.17
2022-11-21T19:04:05.659Z,2.70
2022-11-21T19:06:33.524Z,2.20
2022-11-21T19:09:01.372Z,2.23
2022-11-21T19:11:30.470Z,3.03
2022-11-21T19:13:58.867Z,2.60
2022-11-21T19:16:27.731Z,3.23
2022-11-21T19:19:26.518Z,4.40
2022-11-21T19:21:43.589Z,4.10
2022-11-21T19:24:14.348Z,3.10
2022-11-21T19:26:42.474Z,3.33
2022-11-21T19:29:10.968Z,2.37
2022-11-21T19:31:44.628Z,2.43
2022-11-21T19:34:15.292Z,2.30
2022-11-21T19:36:44.527Z,1.97
2022-11-21T19:39:12.563Z,2.10
2022-11-21T19:41:40.452Z,1.90
2022-11-21T19:44:08.309Z,2.43
2022-11-21T19:46:39.195Z,2.47
2022-11-21T19:49:07.801Z,2.53
2022-11-21T19:51:42.279Z,3.00
2022-11-21T19:54:10.739Z,2.47
2022-11-21T19:56:38.590Z,2.60
2022-11-21T19:59:06.429Z,2.20
2022-11-21T20:01:35.049Z,2.30
2022-11-21T20:04:04.196Z,1.90
2022-11-21T20:06:39.517Z,1.90
2022-11-21T20:09:09.099Z,1.90
2022-11-21T20:11:36.968Z,2.30
2022-11-21T20:14:04.758Z,2.30
2022-11-21T20:16:37.347Z,2.30
2022-11-21T20:19:07.738Z,2.40
2022-11-21T20:21:35.845Z,2.83
2022-11-21T20:24:04.764Z,3.10
2022-11-21T20:26:32.630Z,2.77
2022-11-21T20:29:00.506Z,2.90
2022-11-21T20:31:35.282Z,2.80
2022-11-21T20:34:07.560Z,2.63
2022-11-21T20:36:36.097Z,2.33
2022-11-21T20:39:06.272Z,3.00
2022-11-21T20:41:35.578Z,2.50
2022-11-21T20:46:52.902Z,2.80
2022-11-21T20:49:20.749Z,3.17
2022-11-21T20:54:37.357Z,2.67
2022-11-21T20:57:08.127Z,2.80
2022-11-21T20:59:38.326Z,2.70
2022-11-21T21:02:06.238Z,2.53
2022-11-21T21:04:34.185Z,3.43
2022-11-21T21:07:02.060Z,2.57
2022-11-21T21:09:30.098Z,2.60
2022-11-21T21:11:58.164Z,2.77
2022-11-21T21:14:25.976Z,3.03
2022-11-21T21:16:53.890Z,2.47
2022-11-21T21:19:22.687Z,2.83
2022-11-21T21:21:50.638Z,2.50
2022-11-21T21:24:18.427Z,2.27
2022-11-21T21:26:47.512Z,2.17
2022-11-21T21:29:20.198Z,2.20
2022-11-21T21:31:51.666Z,2.80
2022-11-21T21:34:23.453Z,2.17
2022-11-21T21:36:51.968Z,2.20
2022-11-21T21:39:19.881Z,2.17
2022-11-21T21:41:48.131Z,2.03
2022-11-21T21:44:16.415Z,2.50
2022-11-21T21:46:44.336Z,2.60
2022-11-21T21:49:12.187Z,2.37
2022-11-21T21:51:40.215Z,2.30
2022-11-21T21:54:08.270Z,2.00
2022-11-21T21:56:36.194Z,2.20
2022-11-21T21:59:04.017Z,2.00
2022-11-21T22:01:33.149Z,2.50
2022-11-21T22:04:04.719Z,2.20
2022-11-21T22:06:34.157Z,2.47
2022-11-21T22:09:02.160Z,2.30
2022-11-21T22:11:31.700Z,2.30
2022-11-21T22:14:07.429Z,2.10
2022-11-21T22:16:35.292Z,2.17
2022-11-21T22:19:03.047Z,1.80
2022-11-21T22:21:35.428Z,2.80
2022-11-21T22:26:52.674Z,2.03
2022-11-21T22:29:20.477Z,1.73
2022-11-21T22:31:48.384Z,2.27
2022-11-21T22:34:16.142Z,2.00
2022-11-21T22:36:44.553Z,2.00
2022-11-21T22:39:12.545Z,1.67
2022-11-21T22:41:40.415Z,1.97
2022-11-21T22:44:08.281Z,2.10
2022-11-21T22:46:36.238Z,1.70
2022-11-21T22:49:04.793Z,1.43
2022-11-21T22:51:32.540Z,1.80
2022-11-21T22:54:00.560Z,2.77
2022-11-21T22:56:28.893Z,1.83
2022-11-21T22:58:57.316Z,1.77
2022-11-21T23:01:26.265Z,1.93
2022-11-21T23:03:54.230Z,1.77
2022-11-21T23:06:24.758Z,2.30
2022-11-21T23:08:53.365Z,2.60
2022-11-21T23:11:25.650Z,2.27
2022-11-21T23:13:53.583Z,3.17
2022-11-21T23:16:21.652Z,2.63
2022-11-21T23:18:50.065Z,2.50
2022-11-21T23:21:17.812Z,2.97
2022-11-21T23:23:45.555Z,2.67
2022-11-21T23:26:13.345Z,3.40
2022-11-21T23:28:41.060Z,3.40
2022-11-21T23:31:08.848Z,3.80
2022-11-21T23:33:36.674Z,2.90
2022-11-21T23:36:04.585Z,3.23
2022-11-21T23:38:32.359Z,3.00
2022-11-21T23:41:00.265Z,2.80
2022-11-21T23:43:28.433Z,2.73
2022-11-21T23:45:56.492Z,3.10
2022-11-21T23:48:25.361Z,2.47
2022-11-21T23:50:53.211Z,2.70
2022-11-21T23:53:21.206Z,2.40
2022-11-21T23:55:49.559Z,2.70
2022-11-21T23:58:17.651Z,2.63
